Time;durP1;ratioP1;P1;durP2;ratioP2;P2;SDS_P1;SDS_P2;PMS_P1;PMS_P2;Temp;Humidity;BMP_temperature;BMP_pressure;BME280_temperature;BME280_humidity;BME280_pressure;Samples;Min_cycle;Max_cycle;Signal;HPM_P1;HPM_P2
2021/12/19 07:36:52;;;;;;;;;7.00;7.00;;;;;6.87;71.97;102949.72;5811791;23;46936;-94
2021/12/19 07:39:26;;;;;;;;;8.33;8.33;;;;;6.91;72.01;102949.22;4902157;28;45444;-83
2021/12/19 07:41:51;;;;;;;;;11.33;8.33;;;;;6.98;71.63;102945.53;4913672;28;45461;-83
2021/12/19 07:44:17;;;;;;;;;11.00;10.33;;;;;7.02;72.11;102946.72;4915294;28;45300;-83
2021/12/19 07:46:43;;;;;;;;;15.00;11.00;;;;;7.07;71.80;102955.00;4907967;28;46295;-83
2021/12/19 07:49:08;;;;;;;;;10.67;7.00;;;;;7.09;71.90;102956.06;4908360;28;45556;-82
2021/12/19 07:51:34;;;;;;;;;12.33;10.00;;;;;7.13;72.03;102961.75;4913540;28;45743;-83
2021/12/19 07:53:59;;;;;;;;;7.00;7.00;;;;;7.11;72.06;102957.16;4912973;28;45340;-82
2021/12/19 07:56:24;;;;;;;;;11.67;7.00;;;;;7.11;71.86;102952.81;4912753;28;46166;-82
2021/12/19 07:58:50;;;;;;;;;11.33;8.67;;;;;7.19;71.89;102964.00;4914435;28;45716;-82
2021/12/19 08:01:15;;;;;;;;;15.67;11.00;;;;;7.19;72.06;102964.00;4912481;28;45502;-82
2021/12/19 08:03:40;;;;;;;;;17.33;7.67;;;;;7.23;71.88;102966.16;4913178;28;45654;-82
2021/12/19 08:06:06;;;;;;;;;16.33;7.00;;;;;7.25;71.87;102966.28;4912039;28;57844;-82
2021/12/19 08:08:33;;;;;;;;;13.33;9.00;;;;;7.24;71.54;102957.50;4911987;28;45429;-82
2021/12/19 08:13:42;;;;;;;;;23.00;9.00;;;;;7.28;71.02;102969.19;4916029;28;45737;-82
2021/12/19 08:16:08;;;;;;;;;7.33;7.00;;;;;7.24;71.13;102956.63;4915788;28;45425;-83
2021/12/19 08:18:34;;;;;;;;;12.00;10.33;;;;;7.27;71.16;102962.13;4916506;28;46784;-83
2021/12/19 08:20:59;;;;;;;;;14.67;8.33;;;;;7.34;71.24;102971.47;4916595;28;45469;-84
2021/12/19 08:23:25;;;;;;;;;12.67;9.00;;;;;7.32;71.18;102959.97;4912127;28;53256;-81
2021/12/19 08:25:50;;;;;;;;;11.33;8.33;;;;;7.36;71.10;102963.00;4899288;28;47269;-81
2021/12/19 08:28:15;;;;;;;;;12.00;11.00;;;;;7.40;70.74;102969.41;4916728;28;45531;-84
2021/12/19 08:30:41;;;;;;;;;9.67;9.67;;;;;7.35;70.74;102955.00;4915148;28;54033;-82
2021/12/19 08:33:06;;;;;;;;;11.33;8.00;;;;;7.37;70.79;102956.09;4914505;28;45563;-81
2021/12/19 08:35:31;;;;;;;;;13.67;11.67;;;;;7.41;70.78;102955.59;4912585;28;61533;-81
2021/12/19 08:37:57;;;;;;;;;17.67;13.67;;;;;7.42;70.70;102960.03;4914973;28;45430;-82
2021/12/19 08:40:23;;;;;;;;;13.67;11.33;;;;;7.40;70.91;102958.03;4898261;28;45408;-82
2021/12/19 08:42:49;;;;;;;;;13.33;11.67;;;;;7.42;71.00;102951.28;4916286;28;45449;-82
2021/12/19 08:45:15;;;;;;;;;20.00;16.33;;;;;7.44;70.98;102958.50;4915215;28;45398;-82
2021/12/19 08:47:41;;;;;;;;;15.00;12.33;;;;;7.44;71.30;102949.75;4915550;28;45512;-82
2021/12/19 08:50:08;;;;;;;;;15.33;11.67;;;;;7.52;70.71;102958.31;4916729;28;45409;-82
2021/12/19 08:52:34;;;;;;;;;16.33;14.67;;;;;7.50;70.35;102955.53;4915709;28;45553;-82
2021/12/19 08:54:59;;;;;;;;;11.00;11.00;;;;;7.50;70.74;102952.91;4915091;28;45763;-82
2021/12/19 08:57:25;;;;;;;;;17.33;14.33;;;;;7.54;70.82;102952.44;4906213;28;45974;-83
2021/12/19 08:59:50;;;;;;;;;13.00;13.00;;;;;7.52;70.68;102958.31;4898715;28;45593;-82
2021/12/19 09:02:15;;;;;;;;;21.00;13.00;;;;;7.56;70.70;102961.34;4898226;28;45648;-82
2021/12/19 09:04:41;;;;;;;;;14.33;11.67;;;;;7.58;70.61;102962.41;4899288;28;48037;-82
2021/12/19 09:07:06;;;;;;;;;15.67;11.33;;;;;7.58;70.68;102964.09;4898286;28;45770;-82
2021/12/19 09:09:32;;;;;;;;;12.33;11.67;;;;;7.60;70.68;102973.91;4915233;28;45518;-82
2021/12/19 09:11:57;;;;;;;;;23.00;16.67;;;;;7.58;70.56;102958.84;4914809;28;45389;-82
2021/12/19 09:14:23;;;;;;;;;16.00;12.33;;;;;7.62;70.22;102966.22;4904646;28;48324;-82
2021/12/19 09:16:48;;;;;;;;;16.67;14.00;;;;;7.60;70.07;102963.44;4892808;28;45542;-82
2021/12/19 09:19:14;;;;;;;;;15.00;12.00;;;;;7.60;70.40;102970.41;4902345;28;45669;-82
2021/12/19 09:21:40;;;;;;;;;17.33;13.67;;;;;7.59;70.64;102961.63;4913744;28;45564;-82
2021/12/19 09:24:06;;;;;;;;;24.33;23.33;;;;;7.59;71.06;102965.94;4920370;28;46044;-82
2021/12/19 09:26:31;;;;;;;;;20.67;16.67;;;;;7.63;70.58;102968.06;4914176;28;45680;-82
2021/12/19 09:28:56;;;;;;;;;22.67;16.67;;;;;7.64;70.85;102962.06;4916594;28;45452;-84
2021/12/19 09:31:22;;;;;;;;;18.33;14.67;;;;;7.68;70.58;102958.94;4914942;28;45614;-84
2021/12/19 09:33:47;;;;;;;;;17.67;16.67;;;;;7.67;70.68;102946.66;4903635;28;47715;-83
2021/12/19 09:36:12;;;;;;;;;13.67;12.00;;;;;7.72;70.37;102952.31;4915310;28;45806;-83
2021/12/19 09:38:38;;;;;;;;;17.00;11.33;;;;;7.71;70.57;102954.00;4914624;28;45445;-83
2021/12/19 09:41:13;;;;;;;;;18.67;14.00;;;;;7.77;70.29;102963.19;4915635;28;45449;-83
2021/12/19 09:43:43;;;;;;;;;13.67;12.33;;;;;7.78;70.48;102968.56;4888465;29;47504;-83
2021/12/19 09:46:15;;;;;;;;;19.00;12.67;;;;;7.76;70.55;102964.88;4908435;28;45374;-83
2021/12/19 09:48:42;;;;;;;;;14.00;11.67;;;;;7.77;70.71;102956.28;4902262;28;46968;-83
2021/12/19 09:51:12;;;;;;;;;17.00;13.50;;;;;7.78;70.75;102949.34;4913848;28;45393;-83
2021/12/19 09:53:38;;;;;;;;;16.00;13.33;;;;;7.80;70.33;102953.97;4914331;28;46393;-83
2021/12/19 09:56:04;;;;;;;;;15.00;12.33;;;;;7.85;70.14;102954.38;4915625;28;45392;-83
2021/12/19 09:58:32;;;;;;;;;18.33;14.33;;;;;7.86;70.60;102945.72;4914932;28;45392;-83
2021/12/19 10:00:58;;;;;;;;;20.33;16.33;;;;;7.86;70.13;102947.47;4892532;29;45525;-86
2021/12/19 10:03:24;;;;;;;;;16.33;15.00;;;;;7.89;69.82;102939.88;4902707;28;48707;-84
2021/12/19 10:05:49;;;;;;;;;13.00;12.67;;;;;7.93;70.31;102947.25;4912794;28;46815;-84
2021/12/19 10:08:23;;;;;;;;;15.33;12.00;;;;;7.94;69.98;102938.59;4890251;29;45942;-83
2021/12/19 10:10:59;;;;;;;;;16.67;15.33;;;;;7.96;69.99;102934.44;4913395;28;45295;-84
2021/12/19 10:13:36;;;;;;;;;26.67;17.00;;;;;7.96;69.86;102934.44;4914496;28;46411;-84
2021/12/19 10:16:21;;;;;;;;;17.33;13.67;;;;;7.96;69.79;102930.91;4914128;28;45481;-84
2021/12/19 10:18:51;;;;;;;;;14.00;11.00;;;;;7.99;69.68;102934.72;4914848;28;45406;-84
2021/12/19 10:21:22;;;;;;;;;17.33;13.00;;;;;8.01;69.68;102916.56;4913887;28;48551;-84
2021/12/19 10:23:48;;;;;;;;;14.67;11.00;;;;;8.04;69.60;102922.06;4913226;28;45522;-84
2021/12/19 10:26:13;;;;;;;;;22.00;17.50;;;;;8.10;69.75;102921.69;4914802;28;45739;-84
2021/12/19 10:28:48;;;;;;;;;20.33;17.00;;;;;8.16;69.39;102924.88;4910493;28;45513;-84
2021/12/19 10:31:13;;;;;;;;;19.25;18.25;;;;;8.18;69.24;102920.69;4909376;28;45548;-84
2021/12/19 10:33:39;;;;;;;;;19.33;17.00;;;;;8.22;69.20;102930.63;4913382;28;46452;-87
2021/12/19 10:36:07;;;;;;;;;23.00;19.00;;;;;8.30;68.95;102925.22;4914654;28;45398;-83
2021/12/19 10:38:38;;;;;;;;;17.00;15.00;;;;;8.32;68.76;102924.56;4913773;28;45569;-85
2021/12/19 10:41:33;;;;;;;;;21.33;18.33;;;;;8.37;68.59;102923.28;4894890;28;45664;-84
2021/12/19 10:45:29;;;;;;;;;32.67;23.00;;;;;8.44;68.45;102919.50;4914951;28;46280;-84
2021/12/19 10:46:52;;;;;;;;;24.33;18.00;;;;;8.43;68.27;102916.72;4908804;28;45528;-84
2021/12/19 10:49:32;;;;;;;;;20.00;18.33;;;;;8.49;68.42;102915.59;4912440;28;45703;-84
2021/12/19 10:52:04;;;;;;;;;22.33;19.00;;;;;8.55;67.91;102911.69;4913749;28;45424;-84
2021/12/19 10:54:30;;;;;;;;;29.00;21.50;;;;;8.59;68.11;102903.34;4897311;28;47418;-83
2021/12/19 10:57:07;;;;;;;;;24.00;19.33;;;;;8.61;67.95;102893.94;4913573;28;45563;-84
2021/12/19 10:59:34;;;;;;;;;19.67;18.33;;;;;8.69;67.24;102894.59;4914816;28;45383;-83
2021/12/19 11:02:00;;;;;;;;;24.33;17.33;;;;;8.74;66.96;102892.38;4909081;28;45675;-84
2021/12/19 11:04:25;;;;;;;;;19.67;17.67;;;;;8.79;67.20;102893.72;4910296;28;46144;-84
2021/12/19 11:06:56;;;;;;;;;22.00;16.67;;;;;8.81;66.73;102900.03;4908989;28;45489;-83
2021/12/19 11:09:30;;;;;;;;;23.67;18.33;;;;;8.83;66.41;102893.22;4908347;28;45438;-84
2021/12/19 11:11:57;;;;;;;;;20.33;18.00;;;;;8.84;66.47;102884.56;4899321;28;45761;-84
2021/12/19 11:14:39;;;;;;;;;26.33;18.67;;;;;8.85;66.19;102882.84;4914819;28;45403;-84
2021/12/19 11:17:18;;;;;;;;;32.33;25.00;;;;;8.86;66.46;102879.47;4907415;28;45573;-83
2021/12/19 11:19:45;;;;;;;;;25.67;20.67;;;;;8.90;66.95;102876.31;4913595;28;45792;-84
2021/12/19 11:22:11;;;;;;;;;27.67;19.33;;;;;8.92;66.64;102870.44;4909273;28;45501;-84
2021/12/19 11:24:37;;;;;;;;;25.00;20.25;;;;;8.96;66.11;102873.31;4911593;28;45732;-83
2021/12/19 11:27:06;;;;;;;;;25.00;19.00;;;;;8.96;66.32;102861.16;4897248;28;45538;-83
2021/12/19 11:29:31;;;;;;;;;25.33;22.33;;;;;8.97;66.78;102859.44;4906101;28;46322;-85
2021/12/19 11:32:02;;;;;;;;;14.67;11.67;;;;;8.95;66.07;102843.59;4903782;28;45691;-84
2021/12/19 11:34:56;;;;;;;;;19.00;18.33;;;;;9.02;66.14;102848.56;4898934;28;47916;-85
2021/12/19 11:37:26;;;;;;;;;21.67;20.00;;;;;9.07;66.34;102851.56;4887384;28;45577;-83
2021/12/19 11:39:55;;;;;;;;;25.33;21.00;;;;;9.09;65.93;102849.09;4909719;28;45474;-83
2021/12/19 11:42:32;;;;;;;;;27.00;21.33;;;;;9.08;66.42;102842.00;4912789;28;45644;-83
2021/12/19 11:47:52;;;;;;;;;25.33;20.00;;;;;9.13;65.71;102840.69;4912535;28;45448;-85
2021/12/19 11:50:36;;;;;;;;;27.00;24.00;;;;;9.13;65.53;102827.59;4898388;28;45632;-84
2021/12/19 11:53:07;;;;;;;;;30.00;23.33;;;;;9.11;66.08;102827.47;4914333;28;45510;-83
2021/12/19 11:55:36;;;;;;;;;25.00;16.33;;;;;9.13;65.89;102824.97;4892200;28;48144;-84
2021/12/19 11:58:08;;;;;;;;;19.67;17.00;;;;;9.18;66.12;102821.03;4915919;28;45592;-85
2021/12/19 12:00:38;;;;;;;;;26.00;19.00;;;;;9.20;66.06;102818.56;4898335;28;45408;-85
2021/12/19 12:03:13;;;;;;;;;19.67;16.33;;;;;9.27;65.50;102808.75;4914100;28;45646;-84
2021/12/19 12:05:43;;;;;;;;;21.00;18.67;;;;;9.28;65.79;102812.25;4896351;28;48464;-84
2021/12/19 12:08:13;;;;;;;;;21.33;19.33;;;;;9.30;65.29;102801.91;4891846;28;45486;-85
2021/12/19 12:11:04;;;;;;;;;18.67;18.67;;;;;9.30;65.70;102799.31;4898323;28;45989;-85
2021/12/19 12:13:34;;;;;;;;;22.00;19.67;;;;;9.33;65.55;102799.56;4886958;28;45643;-84
2021/12/19 12:16:11;;;;;;;;;28.33;23.33;;;;;9.34;65.84;102796.13;4910247;28;45453;-84
2021/12/19 12:18:39;;;;;;;;;20.00;18.33;;;;;9.34;65.52;102791.81;4916764;28;45607;-85
2021/12/19 12:23:52;;;;;;;;;22.33;18.00;;;;;9.34;65.55;102786.56;4915624;28;45713;-85
2021/12/19 12:26:28;;;;;;;;;24.00;21.67;;;;;9.33;65.55;102784.72;4913226;28;45915;-82
2021/12/19 12:28:54;;;;;;;;;25.33;20.33;;;;;9.36;65.99;102765.72;4917058;28;45453;-83
2021/12/19 12:31:20;;;;;;;;;28.00;23.25;;;;;9.37;65.70;102763.25;4912938;28;45626;-83
2021/12/19 12:33:45;;;;;;;;;23.33;20.33;;;;;9.39;65.79;102769.53;4910198;28;45427;-83
2021/12/19 12:36:11;;;;;;;;;25.33;21.33;;;;;9.39;65.88;102765.97;4916390;28;46332;-83
2021/12/19 12:38:36;;;;;;;;;29.67;22.33;;;;;9.40;65.87;102765.22;4913484;28;45544;-81
2021/12/19 12:41:09;;;;;;;;;25.67;21.33;;;;;9.43;65.58;102761.94;4901607;28;45583;-84
2021/12/19 12:43:36;;;;;;;;;29.33;22.67;;;;;9.36;65.84;102747.38;4896247;28;45720;-83
2021/12/19 12:46:07;;;;;;;;;23.33;22.00;;;;;9.42;65.60;102758.38;4915021;28;46706;-83
2021/12/19 12:48:36;;;;;;;;;29.00;22.00;;;;;9.39;65.91;102751.19;4916187;28;45459;-84
2021/12/19 12:51:25;;;;;;;;;31.00;24.00;;;;;9.29;65.95;102740.72;4914691;28;45309;-86
2021/12/19 12:53:56;;;;;;;;;34.33;25.67;;;;;9.30;66.18;102746.88;4899489;28;45553;-84
2021/12/19 12:56:31;;;;;;;;;20.33;19.67;;;;;9.27;66.40;102740.59;4899116;28;48093;-84
2021/12/19 12:58:58;;;;;;;;;31.00;26.33;;;;;9.29;66.21;102745.97;4917236;28;45476;-84
2021/12/19 13:01:45;;;;;;;;;29.33;23.67;;;;;9.26;66.33;102733.53;4904633;28;45457;-83
2021/12/19 13:04:13;;;;;;;;;31.00;21.75;;;;;9.27;66.45;102738.00;4913545;28;47967;-84
2021/12/19 13:06:40;;;;;;;;;22.67;20.33;;;;;9.22;66.58;102725.28;4913756;28;47399;-83
2021/12/19 13:09:10;;;;;;;;;20.33;18.00;;;;;9.24;66.33;102728.94;4898725;28;45521;-84
2021/12/19 13:11:36;;;;;;;;;23.33;20.00;;;;;9.21;66.37;102723.44;4915506;28;45516;-85
2021/12/19 13:14:11;;;;;;;;;26.67;20.00;;;;;9.20;66.62;102716.38;4911111;28;45568;-84
2021/12/19 13:16:49;;;;;;;;;23.33;17.00;;;;;9.19;66.67;102712.84;4904673;28;47475;-84
2021/12/19 13:19:41;;;;;;;;;16.33;15.00;;;;;9.23;66.69;102714.91;4914862;28;45494;-84
2021/12/19 13:22:13;;;;;;;;;15.00;14.33;;;;;9.25;66.48;102708.09;4897377;28;45417;-84
2021/12/19 13:24:40;;;;;;;;;23.67;15.33;;;;;9.26;66.69;102706.38;4893214;28;45391;-84
2021/12/19 13:27:09;;;;;;;;;23.00;18.33;;;;;9.30;66.26;102716.34;4896152;28;47502;-84
2021/12/19 13:29:37;;;;;;;;;18.33;15.33;;;;;9.30;66.67;102703.25;4896780;28;45791;-84
2021/12/19 13:32:19;;;;;;;;;15.67;9.67;;;;;9.26;66.20;102694.22;4896571;28;45444;-83
2021/12/19 13:34:44;;;;;;;;;14.00;12.67;;;;;9.24;66.05;102695.78;4888017;28;45940;-83
2021/12/19 13:37:10;;;;;;;;;11.67;11.00;;;;;9.21;66.11;102695.53;4910752;28;45652;-82
2021/12/19 13:39:36;;;;;;;;;9.00;8.00;;;;;9.20;65.95;102690.19;4915334;28;45613;-83
2021/12/19 13:42:09;;;;;;;;;13.00;9.00;;;;;9.13;66.20;102679.19;4895371;28;45446;-84
2021/12/19 13:44:35;;;;;;;;;12.00;8.67;;;;;9.11;66.17;102682.47;4898834;28;45483;-83
2021/12/19 13:47:21;;;;;;;;;12.33;11.33;;;;;9.10;66.38;102678.00;4906811;28;45357;-83
2021/12/19 13:49:47;;;;;;;;;14.67;12.33;;;;;9.14;66.53;102678.41;4913776;28;45432;-83
2021/12/19 13:52:13;;;;;;;;;14.67;12.67;;;;;9.15;66.39;102676.66;4914423;28;45473;-83
2021/12/19 13:54:40;;;;;;;;;16.00;14.67;;;;;9.18;66.03;102670.78;4910395;28;45454;-83
2021/12/19 13:57:20;;;;;;;;;17.33;13.00;;;;;9.16;66.32;102666.34;4903456;28;46338;-83
2021/12/19 13:59:45;;;;;;;;;23.33;13.33;;;;;9.17;66.18;102662.03;4914667;28;45477;-83
2021/12/19 14:02:11;;;;;;;;;17.33;15.67;;;;;9.08;66.47;102656.91;4911083;28;45485;-84
2021/12/19 14:04:37;;;;;;;;;20.67;15.00;;;;;9.10;66.69;102657.03;4908412;28;45477;-83
2021/12/19 14:07:10;;;;;;;;;27.00;20.33;;;;;9.03;66.93;102651.31;4911519;28;46407;-83
2021/12/19 14:09:40;;;;;;;;;27.33;20.00;;;;;9.07;66.64;102662.06;4914451;28;45561;-83
2021/12/19 14:12:24;;;;;;;;;35.50;26.25;;;;;9.05;66.90;102660.19;4911776;28;45490;-85
2021/12/19 14:14:49;;;;;;;;;26.67;25.00;;;;;9.02;66.86;102652.09;4915306;28;45375;-89
2021/12/19 14:17:15;;;;;;;;;22.67;18.67;;;;;9.00;67.01;102651.03;4899448;28;47179;-89
2021/12/19 14:19:50;;;;;;;;;27.00;23.67;;;;;8.93;66.94;102641.78;4915484;28;45476;-88
2021/12/19 14:22:17;;;;;;;;;23.00;20.33;;;;;8.92;67.37;102645.19;4914885;28;45509;-88
2021/12/19 14:24:50;;;;;;;;;21.33;18.00;;;;;8.95;67.31;102636.66;4914610;28;45666;-88
2021/12/19 14:27:24;;;;;;;;;33.50;29.25;;;;;9.01;67.31;102649.34;4903809;28;48283;-90
2021/12/19 14:29:55;;;;;;;;;13.33;12.00;;;;;9.00;66.85;102643.19;4909824;28;45545;-90
2021/12/19 14:32:27;;;;;;;;;16.00;14.67;;;;;8.93;66.74;102631.31;4911827;28;45412;-88
2021/12/19 14:35:17;;;;;;;;;20.67;16.00;;;;;8.92;66.61;102632.06;4916870;28;45398;-88
2021/12/19 14:37:45;;;;;;;;;11.00;10.33;;;;;8.88;66.78;102635.25;4904376;28;46022;-90
2021/12/19 14:40:35;;;;;;;;;8.00;7.67;;;;;8.89;66.80;102631.81;4895889;28;46481;-89
2021/12/19 14:43:04;;;;;;;;;9.00;8.00;;;;;8.85;66.77;102642.84;4912169;28;45591;-88
2021/12/19 14:45:30;;;;;;;;;22.33;21.00;;;;;8.81;66.58;102641.66;4898558;28;45572;-89
2021/12/19 14:48:12;;;;;;;;;15.67;15.00;;;;;8.80;66.83;102641.53;4900622;28;47377;-87
2021/12/19 14:50:47;;;;;;;;;18.67;18.33;;;;;8.80;67.15;102633.69;4912610;28;46694;-89
2021/12/19 14:53:21;;;;;;;;;15.33;13.00;;;;;8.84;67.16;102638.38;4897950;28;45429;-88
2021/12/19 14:55:50;;;;;;;;;19.33;17.33;;;;;8.82;67.20;102635.66;4913281;28;45427;-90
2021/12/19 14:58:18;;;;;;;;;25.67;23.00;;;;;8.83;67.19;102640.09;4900092;28;46038;-89
2021/12/19 15:00:48;;;;;;;;;16.33;15.33;;;;;8.82;67.05;102633.03;4896096;28;45512;-88
2021/12/19 15:03:13;;;;;;;;;13.00;11.00;;;;;8.79;67.44;102622.28;4910301;28;46659;-92
2021/12/19 15:05:41;;;;;;;;;19.67;16.33;;;;;8.83;67.54;102637.50;4896162;28;45509;-89
2021/12/19 15:08:09;;;;;;;;;16.67;15.67;;;;;8.81;67.46;102623.31;4914944;28;46446;-90
2021/12/19 15:10:35;;;;;;;;;14.00;13.67;;;;;8.80;67.52;102611.03;4913109;28;45627;-89
2021/12/19 15:13:01;;;;;;;;;13.67;12.00;;;;;8.85;67.14;102620.97;4908670;28;45492;-88
2021/12/19 15:15:26;;;;;;;;;34.25;26.25;;;;;8.84;67.19;102622.66;4912143;28;45646;-88
2021/12/19 15:17:51;;;;;;;;;30.50;27.25;;;;;8.81;67.42;102618.09;4903398;28;46580;-89
2021/12/19 15:20:17;;;;;;;;;65.75;50.00;;;;;8.79;67.29;102610.88;4913041;28;45558;-90
2021/12/19 15:22:44;;;;;;;;;68.00;52.50;;;;;8.79;67.44;102611.81;4911792;28;45411;-89
2021/12/19 15:25:11;;;;;;;;;37.75;36.75;;;;;8.76;67.74;102600.19;4910707;28;45477;-88
2021/12/19 15:27:38;;;;;;;;;58.25;43.25;;;;;8.80;67.70;102612.72;4911621;28;47731;-89
2021/12/19 15:30:05;;;;;;;;;41.75;35.25;;;;;8.80;67.99;102618.91;4913599;28;45575;-91
2021/12/19 15:32:31;;;;;;;;;28.75;25.50;;;;;8.75;68.39;102599.25;4895243;28;45369;-88
2021/12/19 15:34:56;;;;;;;;;37.00;32.75;;;;;8.77;68.00;102600.31;4914559;28;45490;-91
2021/12/19 15:37:21;;;;;;;;;38.75;35.00;;;;;8.75;68.07;102599.25;4901701;28;48513;-88
2021/12/19 15:39:47;;;;;;;;;25.33;22.67;;;;;8.71;67.96;102595.47;4889627;29;45285;-88
2021/12/19 15:42:13;;;;;;;;;38.50;35.00;;;;;8.63;68.02;102593.94;4893387;29;45411;-89
2021/12/19 15:44:38;;;;;;;;;46.75;38.25;;;;;8.61;68.19;102590.25;4893216;29;45275;-88
2021/12/19 15:47:03;;;;;;;;;25.00;19.33;;;;;8.56;67.84;102595.06;4893836;29;51849;-89
2021/12/19 15:49:29;;;;;;;;;31.50;25.25;;;;;8.57;67.96;102598.59;4894140;29;45363;-89
2021/12/19 15:51:54;;;;;;;;;22.33;17.00;;;;;8.54;67.90;102593.13;4893371;29;45545;-89
2021/12/19 15:54:26;;;;;;;;;34.75;29.75;;;;;8.52;67.94;102595.63;4897498;28;45666;-90
2021/12/19 15:56:51;;;;;;;;;27.00;19.00;;;;;8.52;67.99;102602.53;4887295;29;45729;-90
2021/12/19 15:59:16;;;;;;;;;19.33;18.33;;;;;8.51;67.84;102599.00;4893504;29;58938;-89
2021/12/19 16:01:42;;;;;;;;;77.25;57.00;;;;;8.49;67.90;102595.34;4891578;29;49484;-90
2021/12/19 16:04:07;;;;;;;;;26.00;24.00;;;;;8.50;67.93;102608.56;4905572;28;54535;-89
2021/12/19 16:06:32;;;;;;;;;30.75;26.00;;;;;8.48;68.14;102590.88;4891661;29;46921;-88
2021/12/19 16:08:58;;;;;;;;;27.33;22.00;;;;;8.45;68.06;102591.53;4892448;28;62138;-88
2021/12/19 16:11:23;;;;;;;;;28.33;23.00;;;;;8.42;68.15;102587.78;4908203;28;45366;-88
2021/12/19 16:13:48;;;;;;;;;31.50;25.25;;;;;8.38;67.93;102595.38;4884719;28;45437;-88
2021/12/19 16:16:14;;;;;;;;;30.50;25.00;;;;;8.33;68.11;102593.13;4888556;29;45330;-88
2021/12/19 16:18:39;;;;;;;;;27.33;24.33;;;;;8.32;68.02;102597.47;4889534;29;45406;-88
2021/12/19 16:21:05;;;;;;;;;20.00;16.33;;;;;8.33;67.99;102604.53;4887283;28;45425;-88
2021/12/19 16:23:31;;;;;;;;;16.33;14.67;;;;;8.27;68.04;102597.06;4893373;28;45630;-87
2021/12/19 16:25:57;;;;;;;;;24.67;22.00;;;;;8.27;67.72;102596.16;4890707;29;48745;-88
2021/12/19 16:28:22;;;;;;;;;22.33;19.67;;;;;8.22;67.80;102594.88;4889001;28;45407;-88
2021/12/19 16:30:48;;;;;;;;;23.33;19.33;;;;;8.20;68.15;102604.25;4890956;29;45623;-88
2021/12/19 16:33:14;;;;;;;;;24.00;20.33;;;;;8.17;67.99;102604.91;4890612;29;45552;-88
2021/12/19 16:35:40;;;;;;;;;16.00;14.67;;;;;8.11;68.07;102599.16;4891952;29;45736;-88
2021/12/19 16:38:07;;;;;;;;;20.67;16.00;;;;;8.12;68.03;102607.13;4903430;28;46612;-89
2021/12/19 16:40:34;;;;;;;;;17.33;14.67;;;;;8.11;67.88;102599.16;4879695;29;45539;-88
2021/12/19 16:45:49;;;;;;;;;15.33;15.00;;;;;8.03;67.75;102609.91;4894937;28;45474;-88
2021/12/19 16:48:14;;;;;;;;;17.67;13.67;;;;;8.04;67.84;102613.44;4883661;28;46228;-89
2021/12/19 16:50:40;;;;;;;;;16.67;14.67;;;;;8.03;67.91;102612.50;4888870;29;45755;-90
2021/12/19 16:53:06;;;;;;;;;30.25;27.00;;;;;8.02;68.03;102605.44;4894303;28;45612;-90
2021/12/19 16:55:31;;;;;;;;;29.75;24.00;;;;;7.99;68.09;102605.16;4910645;28;47081;-89
2021/12/19 16:57:57;;;;;;;;;23.00;21.33;;;;;7.92;67.93;102595.88;4893800;28;45526;-89
2021/12/19 17:00:23;;;;;;;;;34.50;32.00;;;;;7.92;68.09;102605.44;4904406;28;45310;-90
2021/12/19 17:02:49;;;;;;;;;26.33;19.33;;;;;7.92;68.21;102598.50;4891869;28;45736;-89
2021/12/19 17:05:15;;;;;;;;;26.25;25.50;;;;;7.90;68.11;102599.16;4894144;29;46456;-89
2021/12/19 17:07:40;;;;;;;;;39.75;34.00;;;;;7.91;68.06;102606.22;4895041;29;45314;-89
2021/12/19 17:10:06;;;;;;;;;57.00;41.75;;;;;7.87;68.78;102586.72;4893740;28;45530;-89
2021/12/19 17:12:31;;;;;;;;;56.50;45.25;;;;;7.88;68.61;102587.66;4895791;28;45544;-89
2021/12/19 17:14:57;;;;;;;;;40.00;32.75;;;;;7.92;68.41;102594.97;4896343;28;48175;-89
2021/12/19 17:17:23;;;;;;;;;36.25;30.25;;;;;7.86;68.53;102589.22;4895084;29;46121;-87
2021/12/19 17:19:51;;;;;;;;;26.75;24.25;;;;;7.86;68.46;102589.22;4893255;28;45612;-89
2021/12/19 17:22:16;;;;;;;;;24.25;18.50;;;;;7.82;68.23;102588.94;4892982;29;45354;-89
2021/12/19 17:24:42;;;;;;;;;28.25;23.00;;;;;7.81;68.10;102589.72;4913031;28;48150;-88
2021/12/19 17:27:07;;;;;;;;;23.75;23.00;;;;;7.79;68.01;102587.75;4905276;28;45748;-89
2021/12/19 17:29:32;;;;;;;;;23.75;22.50;;;;;7.77;68.23;102594.56;4897250;29;45456;-89
2021/12/19 17:31:58;;;;;;;;;19.25;19.25;;;;;7.79;67.92;102599.13;4896264;28;45377;-88
2021/12/19 17:34:23;;;;;;;;;23.00;22.00;;;;;7.74;67.96;102597.81;4896231;28;46345;-89
2021/12/19 17:36:50;;;;;;;;;25.00;20.67;;;;;7.73;68.25;102590.75;4911685;28;45739;-88
2021/12/19 17:39:21;;;;;;;;;19.33;18.67;;;;;7.67;68.61;102591.16;4906782;28;45797;-88
2021/12/19 17:41:46;;;;;;;;;22.75;22.25;;;;;7.68;68.45;102595.59;4912755;28;45461;-88
2021/12/19 17:44:12;;;;;;;;;18.00;17.00;;;;;7.68;68.38;102592.97;4891202;29;47262;-88
2021/12/19 17:46:37;;;;;;;;;19.33;15.33;;;;;7.68;68.08;102592.97;4892686;28;45645;-87
2021/12/19 17:49:04;;;;;;;;;14.33;13.00;;;;;7.68;68.32;102594.69;4897692;28;45457;-88
2021/12/19 17:51:31;;;;;;;;;22.00;17.00;;;;;7.67;68.23;102606.84;4913408;28;49676;-88
2021/12/19 17:53:56;;;;;;;;;27.00;25.00;;;;;7.64;68.40;102593.50;4911460;28;47624;-88
2021/12/19 17:56:22;;;;;;;;;18.67;16.00;;;;;7.62;68.25;102591.53;4914504;28;45387;-88
2021/12/19 17:58:47;;;;;;;;;15.33;14.33;;;;;7.54;68.63;102594.38;4914876;28;45545;-88
2021/12/19 18:01:16;;;;;;;;;16.67;14.33;;;;;7.54;68.31;102591.78;4910263;28;45659;-88
2021/12/19 18:03:48;;;;;;;;;22.00;15.33;;;;;7.54;68.37;102591.78;4894132;28;48700;-88
2021/12/19 18:06:15;;;;;;;;;21.67;17.33;;;;;7.54;68.50;102583.94;4897009;28;45815;-88
2021/12/19 18:08:40;;;;;;;;;22.00;18.25;;;;;7.55;68.71;102580.53;4894862;28;45880;-88
2021/12/19 18:11:06;;;;;;;;;26.00;20.25;;;;;7.57;68.73;102571.16;4910687;28;45477;-90
2021/12/19 18:13:32;;;;;;;;;21.67;16.67;;;;;7.58;68.71;102572.97;4913275;28;46578;-88
2021/12/19 18:15:59;;;;;;;;;15.33;14.67;;;;;7.58;68.95;102572.97;4915269;28;45372;-92
2021/12/19 18:18:25;;;;;;;;;20.00;18.25;;;;;7.59;68.53;102566.97;4914703;28;45360;-89
2021/12/19 18:20:52;;;;;;;;;20.00;17.00;;;;;7.57;68.91;102565.00;4915634;28;45396;-90
2021/12/19 18:23:17;;;;;;;;;13.67;11.67;;;;;7.63;68.70;102572.47;4918380;28;46380;-93
2021/12/19 18:25:43;;;;;;;;;20.00;17.00;;;;;7.58;68.64;102566.81;4881912;28;45487;-92
2021/12/19 18:28:08;;;;;;;;;27.00;15.67;;;;;7.57;68.61;102573.75;4914064;28;45517;-89
2021/12/19 18:30:35;;;;;;;;;21.67;15.33;;;;;7.57;68.83;102578.06;4906589;28;45641;-90
2021/12/19 18:33:00;;;;;;;;;19.00;16.00;;;;;7.55;68.54;102567.47;4890584;28;48044;-90
2021/12/19 18:35:30;;;;;;;;;15.67;12.67;;;;;7.52;68.94;102562.00;4915595;28;45350;-92
2021/12/19 18:38:00;;;;;;;;;16.67;15.67;;;;;7.55;68.84;102566.56;4893981;28;45737;-91
2021/12/19 18:40:27;;;;;;;;;21.75;17.50;;;;;7.49;69.30;102549.56;4909581;28;47658;-89
2021/12/19 18:53:55;;;;;;;;;15.67;15.67;;;;;7.60;69.14;102562.66;4915060;28;46016;-91
2021/12/19 18:56:24;;;;;;;;;24.67;20.67;;;;;7.60;69.56;102554.81;4911632;28;45474;-91
2021/12/19 18:59:01;;;;;;;;;44.50;39.00;;;;;7.58;69.37;102549.44;4913495;28;45494;-91
2021/12/19 19:01:37;;;;;;;;;36.75;33.00;;;;;7.64;69.29;102550.75;4898146;28;45459;-92
2021/12/19 19:04:15;;;;;;;;;38.75;31.75;;;;;7.65;69.50;102549.97;4892730;28;47243;-90
2021/12/19 19:06:44;;;;;;;;;34.75;26.25;;;;;7.65;69.48;102549.97;4914399;28;45465;-92
2021/12/19 19:09:13;;;;;;;;;21.33;20.33;;;;;7.69;69.02;102559.91;4894331;28;45306;-89
2021/12/19 19:11:38;;;;;;;;;20.67;20.33;;;;;7.65;68.96;102552.59;4895490;28;45319;-89
2021/12/19 19:14:05;;;;;;;;;20.50;19.25;;;;;7.63;68.82;102549.84;4914878;28;45359;-89
2021/12/19 19:16:31;;;;;;;;;27.25;24.75;;;;;7.59;68.89;102546.06;4912945;28;45356;-90
2021/12/19 19:18:57;;;;;;;;;21.33;20.33;;;;;7.61;69.33;102561.84;4914617;28;45485;-88
2021/12/19 19:21:23;;;;;;;;;32.50;27.75;;;;;7.60;69.34;102547.88;4915004;28;48007;-89